createdAt,value
2023-01-19T19:29:13.599Z,28.65
2023-01-19T19:31:46.228Z,23.30
2023-01-19T19:34:17.713Z,21.40
2023-01-19T19:36:49.523Z,21.30
2023-01-19T19:39:23.580Z,26.00
2023-01-19T19:41:56.260Z,22.27
2023-01-19T19:44:28.003Z,20.32
2023-01-19T19:46:59.880Z,15.40
2023-01-19T19:49:31.525Z,20.68
2023-01-19T19:52:02.921Z,21.00
2023-01-19T19:57:14.127Z,18.32
2023-01-19T19:59:45.738Z,18.20
2023-01-19T20:02:17.267Z,16.48
2023-01-19T20:04:49.025Z,22.75
2023-01-19T20:07:20.702Z,17.90
2023-01-19T20:10:00.129Z,19.87
2023-01-19T20:12:33.443Z,21.30
2023-01-19T20:15:08.470Z,20.50
2023-01-19T20:17:40.209Z,19.92
2023-01-19T20:20:14.810Z,16.25
2023-01-19T20:22:46.492Z,23.95
2023-01-19T20:25:18.045Z,17.60
2023-01-19T20:27:52.590Z,14.83
2023-01-19T20:30:24.495Z,19.90
2023-01-19T20:32:56.703Z,19.60
2023-01-19T20:35:28.231Z,19.65
2023-01-19T20:37:59.929Z,19.25
2023-01-19T20:40:31.594Z,21.60
2023-01-19T20:43:03.118Z,13.60
2023-01-19T20:45:45.254Z,12.30
2023-01-19T20:48:16.798Z,10.30
2023-01-19T20:50:48.171Z,11.40
2023-01-19T20:53:19.697Z,11.33
2023-01-19T20:55:51.040Z,12.60
2023-01-19T20:58:23.072Z,12.55
2023-01-19T21:00:57.176Z,21.05
2023-01-19T21:03:29.839Z,16.20
2023-01-19T21:06:01.231Z,13.65
2023-01-19T21:08:33.397Z,11.80
2023-01-19T21:11:05.786Z,13.25
2023-01-19T21:13:38.241Z,14.43
2023-01-19T21:16:10.657Z,14.07
2023-01-19T21:18:42.092Z,20.55
2023-01-19T21:21:29.076Z,13.08
2023-01-19T21:23:46.918Z,15.10
2023-01-19T21:26:18.772Z,14.55
2023-01-19T21:28:50.717Z,18.07
2023-01-19T21:31:27.105Z,13.08
2023-01-19T21:33:57.218Z,21.75
2023-01-19T21:36:28.982Z,12.05
2023-01-19T21:39:01.151Z,18.20
2023-01-19T21:41:38.581Z,13.10
2023-01-19T21:44:11.015Z,15.98
2023-01-19T21:47:15.216Z,16.55
2023-01-19T21:49:46.752Z,14.05
2023-01-19T21:52:18.892Z,11.95
2023-01-19T21:54:50.501Z,15.08
2023-01-19T21:57:21.941Z,16.50
2023-01-19T21:59:54.396Z,12.40
2023-01-19T22:02:37.891Z,12.40
2023-01-19T22:04:58.816Z,15.50
2023-01-19T22:07:30.329Z,10.95
2023-01-19T22:10:01.964Z,10.85
2023-01-19T22:12:33.885Z,10.78
2023-01-19T22:15:06.419Z,13.25
2023-01-19T22:17:37.971Z,7.92
2023-01-19T22:20:11.876Z,11.90
2023-01-19T22:22:43.437Z,9.88
2023-01-19T22:25:15.423Z,10.28
2023-01-19T22:27:47.212Z,8.58
2023-01-19T22:30:20.323Z,12.45
2023-01-19T22:32:53.203Z,10.90
2023-01-19T22:35:24.847Z,9.08
2023-01-19T22:37:56.416Z,12.10
2023-01-19T22:40:28.675Z,10.15
2023-01-19T22:43:00.135Z,9.70
2023-01-19T22:45:31.575Z,5.12
2023-01-19T22:48:03.182Z,10.05
2023-01-19T22:50:35.979Z,13.60
2023-01-19T22:53:07.422Z,8.90
2023-01-19T22:55:38.879Z,9.58
2023-01-19T22:58:10.350Z,12.00
2023-01-19T23:00:41.759Z,10.90
2023-01-19T23:03:13.398Z,9.15
2023-01-19T23:05:44.767Z,11.57
2023-01-19T23:08:16.223Z,13.20
2023-01-19T23:13:33.161Z,10.28
2023-01-19T23:16:05.865Z,8.78
2023-01-19T23:18:37.593Z,8.53
2023-01-19T23:21:11.486Z,9.40
2023-01-19T23:23:43.474Z,9.48
2023-01-19T23:26:16.713Z,10.65
2023-01-19T23:28:49.314Z,11.12
2023-01-19T23:31:22.964Z,12.00
2023-01-19T23:33:56.742Z,12.68
2023-01-19T23:36:31.099Z,7.92
2023-01-19T23:39:04.260Z,6.83
2023-01-19T23:41:35.778Z,8.60
2023-01-19T23:44:07.660Z,8.93
2023-01-19T23:46:40.657Z,9.48
2023-01-19T23:49:12.231Z,7.50
2023-01-19T23:51:43.625Z,6.28
2023-01-19T23:54:15.084Z,10.80
2023-01-19T23:56:46.475Z,13.90
2023-01-19T23:59:18.296Z,7.42
